createdAt,value
2018-06-05T00:00:04.611Z,17.70
2018-06-05T00:01:07.685Z,17.70
2018-06-05T00:02:10.683Z,17.70
2018-06-05T00:03:13.691Z,17.70
2018-06-05T00:04:16.719Z,17.70
2018-06-05T00:05:19.803Z,17.70
2018-06-05T00:06:22.817Z,17.70
2018-06-05T00:07:25.915Z,17.70
2018-06-05T00:08:28.937Z,17.60
2018-06-05T00:09:31.986Z,17.70
2018-06-05T00:10:35.031Z,17.70
2018-06-05T00:11:38.091Z,17.70
2018-06-05T00:12:41.098Z,17.70
2018-06-05T00:13:44.127Z,17.70
2018-06-05T00:14:47.276Z,17.70
2018-06-05T00:15:50.406Z,17.70
2018-06-05T00:16:53.487Z,17.70
2018-06-05T00:17:56.537Z,17.60
2018-06-05T00:18:59.621Z,17.70
2018-06-05T00:20:02.608Z,17.70
2018-06-05T00:21:05.645Z,17.70
2018-06-05T00:22:08.700Z,17.70
2018-06-05T00:23:11.772Z,17.70
2018-06-05T00:24:14.812Z,17.60
2018-06-05T00:25:17.852Z,17.60
2018-06-05T00:26:20.866Z,17.60
2018-06-05T00:27:23.902Z,17.60
2018-06-05T00:28:26.907Z,17.60
2018-06-05T00:29:30.000Z,17.60
2018-06-05T00:30:33.082Z,17.60
2018-06-05T00:31:36.194Z,17.60
2018-06-05T00:32:39.257Z,17.60
2018-06-05T00:33:42.301Z,17.60
2018-06-05T00:34:45.307Z,17.60
2018-06-05T00:35:48.312Z,17.60
2018-06-05T00:36:51.360Z,17.50
2018-06-05T00:37:54.973Z,17.60
2018-06-05T00:38:58.117Z,17.50
2018-06-05T00:40:01.158Z,17.50
2018-06-05T00:41:04.172Z,17.50
2018-06-05T00:42:07.289Z,17.50
2018-06-05T00:43:10.323Z,17.50
2018-06-05T00:44:13.376Z,17.50
2018-06-05T00:45:16.399Z,17.50
2018-06-05T00:46:19.456Z,17.50
2018-06-05T00:48:25.473Z,17.50
2018-06-05T00:49:28.797Z,17.50
2018-06-05T00:50:32.393Z,17.50
2018-06-05T00:51:46.900Z,17.50
2018-06-05T00:52:49.907Z,17.50
2018-06-05T00:53:52.913Z,17.50
2018-06-05T00:54:55.955Z,17.40
2018-06-05T00:55:58.970Z,17.40
2018-06-05T00:57:02.018Z,17.40
2018-06-05T00:58:05.051Z,17.40
2018-06-05T00:59:08.086Z,17.30
2018-06-05T01:00:11.153Z,17.30
2018-06-05T01:01:14.280Z,17.30
2018-06-05T01:02:17.319Z,17.30
2018-06-05T01:03:20.401Z,17.30
2018-06-05T01:04:23.429Z,17.30
2018-06-05T01:05:26.559Z,17.30
2018-06-05T01:06:29.581Z,17.30
2018-06-05T01:07:32.612Z,17.30
2018-06-05T01:08:36.191Z,17.30
2018-06-05T01:09:39.204Z,17.30
2018-06-05T01:11:45.079Z,17.20
2018-06-05T01:12:48.173Z,17.20
2018-06-05T01:13:51.199Z,17.20
2018-06-05T01:14:54.251Z,17.20
2018-06-05T01:15:57.319Z,17.20
2018-06-05T01:17:00.351Z,17.10
2018-06-05T01:18:03.399Z,17.20
2018-06-05T01:19:07.252Z,17.10
2018-06-05T01:20:10.387Z,17.10
2018-06-05T01:21:13.432Z,17.10
2018-06-05T01:22:16.439Z,17.10
2018-06-05T01:23:19.460Z,17.10
2018-06-05T01:24:22.584Z,17.10
2018-06-05T01:25:25.603Z,17.10
2018-06-05T01:26:28.643Z,17.10
2018-06-05T01:27:31.679Z,17.20
2018-06-05T01:28:34.790Z,17.20
2018-06-05T01:29:37.845Z,17.20
2018-06-05T01:30:40.861Z,17.20
2018-06-05T01:31:43.907Z,17.30
2018-06-05T01:32:47.001Z,17.30
2018-06-05T01:33:49.987Z,17.30
2018-06-05T01:34:53.011Z,17.40
2018-06-05T01:35:56.039Z,17.40
2018-06-05T01:36:59.097Z,17.40
2018-06-05T01:38:02.142Z,17.40
2018-06-05T01:39:08.235Z,17.50
2018-06-05T01:40:11.235Z,17.50
2018-06-05T01:41:14.303Z,17.50
2018-06-05T01:42:17.363Z,17.50
2018-06-05T01:43:20.410Z,17.50
2018-06-05T01:44:23.528Z,17.50
2018-06-05T01:45:26.564Z,17.60
2018-06-05T01:46:29.591Z,17.50
2018-06-05T01:47:32.663Z,17.50
2018-06-05T01:48:35.667Z,17.50
2018-06-05T01:49:40.664Z,17.50
2018-06-05T01:50:43.688Z,17.50
2018-06-05T01:51:46.744Z,17.50
2018-06-05T01:52:49.852Z,17.50
2018-06-05T01:53:52.888Z,17.50
2018-06-05T01:54:55.900Z,17.50
2018-06-05T01:55:58.948Z,17.50
2018-06-05T01:57:01.987Z,17.50
2018-06-05T01:58:05.014Z,17.60
2018-06-05T01:59:08.068Z,17.60
2018-06-05T02:00:11.087Z,17.60
2018-06-05T02:01:14.109Z,17.60
2018-06-05T02:02:17.168Z,17.50
2018-06-05T02:03:20.897Z,17.50
2018-06-05T02:04:23.939Z,17.50
2018-06-05T02:05:27.288Z,17.50
2018-06-05T02:06:30.443Z,17.50
2018-06-05T02:07:33.484Z,17.50
2018-06-05T02:08:36.514Z,17.50
2018-06-05T02:09:39.540Z,17.50
2018-06-05T02:10:42.567Z,17.50
2018-06-05T02:11:45.595Z,17.50
2018-06-05T02:12:48.636Z,17.50
2018-06-05T02:13:51.661Z,17.50
2018-06-05T02:14:54.834Z,17.50
2018-06-05T02:15:57.883Z,17.50
2018-06-05T02:17:00.898Z,17.50
2018-06-05T02:18:03.964Z,17.50
2018-06-05T02:19:06.972Z,17.50
2018-06-05T02:20:10.007Z,17.40
2018-06-05T02:21:13.020Z,17.40
2018-06-05T02:22:16.064Z,17.40
2018-06-05T02:23:19.187Z,17.40
2018-06-05T02:25:25.773Z,17.40
2018-06-05T02:26:28.796Z,17.40
2018-06-05T02:27:31.823Z,17.40
2018-06-05T02:28:34.874Z,17.40
2018-06-05T02:29:37.915Z,17.40
2018-06-05T02:30:40.932Z,17.40
2018-06-05T02:31:44.007Z,17.40
2018-06-05T02:32:47.181Z,17.40
2018-06-05T02:33:50.233Z,17.40
2018-06-05T02:34:53.311Z,17.40
2018-06-05T02:36:59.468Z,17.40
2018-06-05T02:38:02.485Z,17.40
2018-06-05T02:39:06.966Z,17.40
2018-06-05T02:40:10.012Z,17.40
2018-06-05T02:41:13.011Z,17.40
2018-06-05T02:42:16.022Z,17.40
2018-06-05T02:43:19.096Z,17.40
2018-06-05T02:44:23.068Z,17.30
2018-06-05T02:45:26.074Z,17.30
2018-06-05T02:46:29.099Z,17.30
2018-06-05T02:47:32.109Z,17.30
2018-06-05T02:48:35.108Z,17.30
2018-06-05T02:49:38.157Z,17.30
2018-06-05T02:50:41.132Z,17.30
2018-06-05T02:51:44.160Z,17.30
2018-06-05T02:52:47.200Z,17.30
2018-06-05T02:53:50.259Z,17.30
2018-06-05T02:54:53.308Z,17.30
2018-06-05T02:55:56.334Z,17.30
2018-06-05T02:56:59.388Z,17.20
2018-06-05T02:58:02.408Z,17.30
2018-06-05T02:59:05.682Z,17.30
2018-06-05T03:00:08.752Z,17.30
2018-06-05T03:01:11.833Z,17.30
2018-06-05T03:02:14.880Z,17.30
2018-06-05T03:03:17.903Z,17.30
2018-06-05T03:04:21.007Z,17.30
2018-06-05T03:05:24.035Z,17.30
2018-06-05T03:06:27.070Z,17.30
2018-06-05T03:07:30.113Z,17.30
2018-06-05T03:08:33.185Z,17.30
2018-06-05T03:09:36.205Z,17.30
2018-06-05T03:10:39.246Z,17.30
2018-06-05T03:11:42.296Z,17.30
2018-06-05T03:12:45.293Z,17.30
2018-06-05T03:13:48.395Z,17.30
2018-06-05T03:14:51.441Z,17.30
2018-06-05T03:15:54.462Z,17.30
2018-06-05T03:16:57.495Z,17.40
2018-06-05T03:18:00.488Z,17.40
2018-06-05T03:19:03.535Z,17.40
2018-06-05T03:20:06.550Z,17.40
2018-06-05T03:21:09.623Z,17.40
2018-06-05T03:22:12.631Z,17.30
2018-06-05T03:23:15.811Z,17.30
2018-06-05T03:24:18.884Z,17.30
2018-06-05T03:25:21.915Z,17.30
2018-06-05T03:26:24.900Z,17.30
2018-06-05T03:27:27.900Z,17.30
2018-06-05T03:28:30.956Z,17.30
2018-06-05T03:29:33.976Z,17.30
2018-06-05T03:30:37.007Z,17.30
2018-06-05T03:31:40.033Z,17.30
2018-06-05T03:32:43.130Z,17.30
2018-06-05T03:33:46.183Z,17.40
2018-06-05T03:35:52.088Z,17.40
2018-06-05T03:36:55.065Z,17.40
2018-06-05T03:37:58.168Z,17.40
2018-06-05T03:39:01.216Z,17.40
2018-06-05T03:40:04.244Z,17.40
2018-06-05T03:41:07.272Z,17.40
2018-06-05T03:42:10.312Z,17.40
2018-06-05T03:43:13.336Z,17.40
2018-06-05T03:44:16.402Z,17.40
2018-06-05T03:45:19.419Z,17.40
2018-06-05T03:46:22.519Z,17.40
2018-06-05T03:47:25.548Z,17.40
2018-06-05T03:48:28.576Z,17.50
2018-06-05T03:49:35.902Z,17.50
2018-06-05T03:50:38.908Z,17.50
2018-06-05T03:51:41.931Z,17.50
2018-06-05T03:52:44.958Z,17.50
2018-06-05T03:54:50.858Z,17.50
2018-06-05T03:55:53.878Z,17.50
2018-06-05T03:56:56.894Z,17.50
2018-06-05T03:57:59.923Z,17.50
2018-06-05T03:59:02.983Z,17.50
2018-06-05T04:00:06.187Z,17.50
2018-06-05T04:01:09.246Z,17.50
2018-06-05T04:02:12.272Z,17.50
2018-06-05T04:03:15.324Z,17.50
2018-06-05T04:04:18.398Z,17.50
2018-06-05T04:05:21.428Z,17.50
2018-06-05T04:06:24.449Z,17.40
2018-06-05T04:07:27.539Z,17.40
2018-06-05T04:08:31.457Z,17.50
2018-06-05T04:09:34.495Z,17.50
2018-06-05T04:10:37.516Z,17.40
2018-06-05T04:11:40.556Z,17.50
2018-06-05T04:12:43.697Z,17.50
2018-06-05T04:13:46.761Z,17.50
2018-06-05T04:14:49.820Z,17.50
2018-06-05T04:15:52.889Z,17.50
2018-06-05T04:16:55.884Z,17.50
2018-06-05T04:17:58.921Z,17.60
2018-06-05T04:19:01.948Z,17.60
2018-06-05T04:20:05.252Z,17.60
2018-06-05T04:21:08.314Z,17.60
2018-06-05T04:22:11.398Z,17.70
2018-06-05T04:23:14.488Z,17.70
2018-06-05T04:24:17.547Z,17.70
2018-06-05T04:25:20.824Z,17.70
2018-06-05T04:26:24.159Z,17.70
2018-06-05T04:27:27.268Z,17.70
2018-06-05T04:28:30.314Z,17.70
2018-06-05T04:29:33.367Z,17.70
2018-06-05T04:30:36.483Z,17.60
2018-06-05T04:31:39.506Z,17.60
2018-06-05T04:32:42.510Z,17.60
2018-06-05T04:33:45.667Z,17.60
2018-06-05T04:35:51.604Z,17.60
2018-06-05T04:36:54.621Z,17.60
2018-06-05T04:37:57.668Z,17.50
2018-06-05T04:39:00.700Z,17.50
2018-06-05T04:40:03.859Z,17.50
2018-06-05T04:41:06.904Z,17.50
2018-06-05T04:42:09.962Z,17.50
2018-06-05T04:43:13.003Z,17.50
2018-06-05T04:44:16.192Z,17.50
2018-06-05T04:45:19.227Z,17.50
2018-06-05T04:46:22.332Z,17.40
2018-06-05T04:47:25.408Z,17.40
2018-06-05T04:48:28.462Z,17.40
2018-06-05T04:49:31.488Z,17.40
2018-06-05T04:50:34.516Z,17.40
2018-06-05T04:51:37.536Z,17.40
2018-06-05T04:52:40.595Z,17.40
2018-06-05T04:53:43.702Z,17.40
2018-06-05T04:55:49.706Z,17.50
2018-06-05T04:56:52.733Z,17.50
2018-06-05T04:57:55.873Z,17.50
2018-06-05T04:58:58.981Z,17.50
2018-06-05T05:00:02.967Z,17.60
2018-06-05T05:01:06.611Z,17.60
2018-06-05T05:02:09.632Z,17.60
2018-06-05T05:03:12.683Z,17.70
2018-06-05T05:04:15.716Z,17.70
2018-06-05T05:05:18.764Z,17.70
2018-06-05T05:06:21.789Z,17.70
2018-06-05T05:07:24.874Z,17.70
2018-06-05T05:08:27.985Z,17.70
2018-06-05T05:09:31.112Z,17.70
2018-06-05T05:10:34.199Z,17.70
2018-06-05T05:11:37.273Z,17.70
2018-06-05T05:12:40.340Z,17.70
2018-06-05T05:13:43.464Z,17.80
2018-06-05T05:14:47.153Z,17.80
2018-06-05T05:15:50.510Z,17.80
2018-06-05T05:16:53.574Z,17.80
2018-06-05T05:17:56.592Z,17.90
2018-06-05T05:18:59.653Z,17.80
2018-06-05T05:20:02.993Z,17.80
2018-06-05T05:21:06.021Z,17.90
2018-06-05T05:22:09.208Z,17.90
2018-06-05T05:23:12.233Z,17.90
2018-06-05T05:24:15.255Z,17.90
2018-06-05T05:25:18.367Z,17.90
2018-06-05T05:26:21.451Z,17.80
2018-06-05T05:27:24.680Z,17.90
2018-06-05T05:28:27.699Z,17.80
2018-06-05T05:29:30.833Z,17.80
2018-06-05T05:30:33.836Z,17.80
2018-06-05T05:31:37.903Z,17.80
2018-06-05T05:32:40.908Z,17.80
2018-06-05T05:33:43.972Z,17.70
2018-06-05T05:34:46.989Z,17.70
2018-06-05T05:35:50.028Z,17.80
2018-06-05T05:36:53.137Z,17.80
2018-06-05T05:37:56.185Z,17.80
2018-06-05T05:38:59.180Z,17.80
2018-06-05T05:40:02.251Z,17.90
2018-06-05T05:41:06.431Z,17.80
2018-06-05T05:42:09.448Z,17.80
2018-06-05T05:43:12.491Z,17.80
2018-06-05T05:44:15.532Z,17.80
2018-06-05T05:46:21.524Z,17.90
2018-06-05T05:47:24.599Z,17.90
2018-06-05T05:48:27.596Z,17.90
2018-06-05T05:49:30.626Z,17.90
2018-06-05T05:50:33.668Z,17.90
2018-06-05T05:51:36.808Z,18.00
2018-06-05T05:52:39.813Z,18.00
2018-06-05T05:53:42.902Z,18.00
2018-06-05T05:54:45.911Z,18.00
2018-06-05T05:55:48.937Z,18.10
2018-06-05T05:56:51.943Z,18.10
2018-06-05T05:57:54.975Z,18.10
2018-06-05T05:58:57.996Z,18.10
2018-06-05T06:00:01.057Z,18.20
2018-06-05T06:02:13.658Z,18.20
2018-06-05T06:03:16.738Z,18.10
2018-06-05T06:04:19.797Z,18.10
2018-06-05T06:05:22.916Z,18.10
2018-06-05T06:06:25.963Z,18.20
2018-06-05T06:08:31.865Z,18.30
2018-06-05T06:09:34.941Z,18.20
2018-06-05T06:10:38.027Z,18.30
2018-06-05T06:11:41.096Z,18.30
2018-06-05T06:12:44.268Z,18.30
2018-06-05T06:13:47.327Z,18.30
2018-06-05T06:14:50.548Z,18.30
2018-06-05T06:15:53.616Z,18.30
2018-06-05T06:16:56.647Z,18.20
2018-06-05T06:17:59.653Z,18.20
2018-06-05T06:19:02.750Z,18.20
2018-06-05T06:20:05.760Z,18.20
2018-06-05T06:21:08.780Z,18.10
2018-06-05T06:22:11.784Z,18.10
2018-06-05T06:23:14.804Z,18.10
2018-06-05T06:24:17.793Z,18.10
2018-06-05T06:25:20.870Z,18.00
2018-06-05T06:27:26.723Z,18.00
2018-06-05T06:28:29.735Z,18.00
2018-06-05T06:29:32.773Z,18.10
2018-06-05T06:30:36.162Z,18.00
2018-06-05T06:33:44.958Z,18.00
2018-06-05T06:34:48.016Z,18.00
2018-06-05T06:35:51.072Z,18.00
2018-06-05T06:36:54.135Z,18.00
2018-06-05T06:37:57.129Z,18.00
2018-06-05T06:39:00.141Z,18.00
2018-06-05T06:40:03.255Z,18.00
2018-06-05T06:41:06.586Z,18.10
2018-06-05T06:42:09.588Z,18.10
2018-06-05T06:43:12.590Z,18.10
2018-06-05T06:44:15.590Z,18.10
2018-06-05T06:45:18.660Z,18.10
2018-06-05T06:46:21.683Z,18.10
2018-06-05T06:47:24.707Z,18.10
2018-06-05T06:48:27.717Z,18.10
2018-06-05T06:49:30.733Z,18.10
2018-06-05T06:50:33.788Z,18.10
2018-06-05T06:51:36.811Z,18.10
2018-06-05T06:52:39.820Z,18.10
2018-06-05T06:53:42.860Z,18.10
2018-06-05T06:54:45.895Z,18.10
2018-06-05T06:55:48.942Z,18.10
2018-06-05T06:56:51.976Z,18.10
2018-06-05T06:57:55.033Z,18.10
2018-06-05T06:58:58.064Z,18.10
2018-06-05T07:00:01.064Z,18.10
2018-06-05T07:01:04.099Z,18.10
2018-06-05T07:02:07.101Z,18.10
2018-06-05T07:03:10.117Z,18.10
2018-06-05T07:04:13.157Z,18.10
2018-06-05T07:05:16.205Z,18.20
2018-06-05T07:06:19.229Z,18.20
2018-06-05T07:07:22.752Z,18.20
2018-06-05T07:08:25.795Z,18.30
2018-06-05T07:09:28.843Z,18.30
2018-06-05T07:10:31.845Z,18.20
2018-06-05T07:11:35.087Z,18.20
2018-06-05T07:12:38.104Z,18.20
2018-06-05T07:13:41.139Z,18.20
2018-06-05T07:14:44.256Z,18.20
2018-06-05T07:15:47.352Z,18.20
2018-06-05T07:16:50.473Z,18.20
2018-06-05T07:17:53.538Z,18.30
2018-06-05T07:18:56.630Z,18.20
2018-06-05T07:19:59.651Z,18.30
2018-06-05T07:21:02.688Z,18.30
2018-06-05T07:22:05.715Z,18.30
2018-06-05T07:23:08.818Z,18.30
2018-06-05T07:24:11.836Z,18.40
2018-06-05T07:25:14.849Z,18.40
2018-06-05T07:26:17.932Z,18.30
2018-06-05T07:27:21.447Z,18.30
2018-06-05T07:28:24.502Z,18.30
2018-06-05T07:29:27.515Z,18.30
2018-06-05T07:30:30.584Z,18.40
2018-06-05T07:31:33.603Z,18.40
2018-06-05T07:32:36.608Z,18.40
2018-06-05T07:33:39.676Z,18.50
2018-06-05T07:34:42.685Z,18.50
2018-06-05T07:35:45.762Z,18.60
2018-06-05T07:36:48.787Z,18.60
2018-06-05T07:37:51.796Z,18.60
2018-06-05T07:38:54.834Z,18.60
2018-06-05T07:39:57.873Z,18.60
2018-06-05T07:41:00.911Z,18.60
2018-06-05T07:42:03.937Z,18.70
2018-06-05T07:43:06.961Z,18.70
2018-06-05T07:44:09.983Z,18.70
2018-06-05T07:45:13.048Z,18.70
2018-06-05T07:46:16.097Z,18.80
2018-06-05T07:47:19.084Z,18.80
2018-06-05T07:48:22.177Z,18.90
2018-06-05T07:49:25.229Z,18.90
2018-06-05T07:50:28.452Z,18.90
2018-06-05T07:51:31.535Z,18.80
2018-06-05T07:52:34.562Z,18.80
2018-06-05T07:53:37.566Z,18.80
2018-06-05T07:54:40.586Z,18.80
2018-06-05T07:55:43.583Z,18.80
2018-06-05T07:56:46.639Z,18.80
2018-06-05T07:57:49.719Z,18.80
2018-06-05T07:58:52.732Z,18.90
2018-06-05T07:59:55.750Z,19.00
2018-06-05T08:00:58.761Z,19.00
2018-06-05T08:02:01.796Z,19.10
2018-06-05T08:03:04.785Z,19.10
2018-06-05T08:04:08.178Z,19.20
2018-06-05T08:06:20.687Z,19.30
2018-06-05T08:07:23.733Z,19.40
2018-06-05T08:08:26.876Z,19.40
2018-06-05T08:09:29.895Z,19.40
2018-06-05T08:10:32.911Z,19.50
2018-06-05T08:11:36.192Z,19.50
2018-06-05T08:12:39.351Z,19.60
2018-06-05T08:13:42.362Z,19.60
2018-06-05T08:14:45.429Z,19.70
2018-06-05T08:15:48.513Z,19.80
2018-06-05T08:16:51.535Z,19.90
2018-06-05T08:17:54.563Z,20.00
2018-06-05T08:18:57.629Z,20.10
2018-06-05T08:20:00.679Z,20.20
2018-06-05T08:21:03.722Z,20.40
2018-06-05T08:22:06.833Z,20.60
2018-06-05T08:23:09.839Z,20.70
2018-06-05T08:24:12.882Z,20.80
2018-06-05T08:25:15.880Z,20.80
2018-06-05T08:26:18.867Z,20.90
2018-06-05T08:27:21.898Z,20.90
2018-06-05T08:28:24.951Z,20.80
2018-06-05T08:29:28.207Z,20.80
2018-06-05T08:30:31.333Z,20.70
2018-06-05T08:31:34.353Z,20.60
2018-06-05T08:32:37.385Z,20.60
2018-06-05T08:33:40.410Z,20.60
2018-06-05T08:34:43.491Z,20.50
2018-06-05T08:35:46.520Z,20.50
2018-06-05T08:36:49.552Z,20.70
2018-06-05T08:37:52.632Z,20.50
2018-06-05T08:38:55.618Z,20.60
2018-06-05T08:39:58.648Z,20.70
2018-06-05T08:41:01.653Z,20.80
2018-06-05T08:42:04.661Z,20.80
2018-06-05T08:43:07.697Z,20.70
2018-06-05T08:44:10.695Z,20.80
2018-06-05T08:45:13.815Z,20.80
2018-06-05T08:46:16.898Z,20.80
2018-06-05T08:47:20.257Z,20.80
2018-06-05T08:48:23.319Z,20.90
2018-06-05T08:49:26.356Z,20.80
2018-06-05T08:50:29.386Z,20.80
2018-06-05T08:51:32.423Z,20.80
2018-06-05T08:52:36.208Z,20.70
2018-06-05T08:53:39.199Z,20.70
2018-06-05T08:54:42.220Z,20.50
2018-06-05T08:55:45.282Z,20.50
2018-06-05T08:56:48.295Z,20.50
2018-06-05T08:57:51.343Z,20.60
2018-06-05T08:58:54.377Z,20.50
2018-06-05T08:59:57.401Z,20.50
2018-06-05T09:01:00.363Z,20.40
2018-06-05T09:02:03.446Z,20.40
2018-06-05T09:03:06.439Z,20.40
2018-06-05T09:04:09.633Z,20.40
2018-06-05T09:05:12.959Z,20.40
2018-06-05T09:06:15.992Z,20.40
2018-06-05T09:07:19.056Z,20.40
2018-06-05T09:08:22.060Z,20.50
2018-06-05T09:09:25.067Z,20.50
2018-06-05T09:10:28.220Z,20.60
2018-06-05T09:11:31.248Z,20.60
2018-06-05T09:12:34.332Z,20.60
2018-06-05T09:13:37.436Z,20.60
2018-06-05T09:14:40.462Z,20.60
2018-06-05T09:15:43.481Z,20.60
2018-06-05T09:16:46.624Z,20.60
2018-06-05T09:17:49.706Z,20.60
2018-06-05T09:18:52.751Z,20.60
2018-06-05T09:19:56.699Z,20.60
2018-06-05T09:20:59.727Z,20.60
2018-06-05T09:22:02.751Z,20.70
2018-06-05T09:23:05.882Z,20.70
2018-06-05T09:24:08.959Z,20.80
2018-06-05T09:25:12.087Z,20.90
2018-06-05T09:26:15.166Z,21.00
2018-06-05T09:27:18.192Z,20.90
2018-06-05T09:28:21.232Z,21.00
2018-06-05T09:29:24.297Z,21.00
2018-06-05T09:30:27.330Z,20.90
2018-06-05T09:31:30.386Z,20.70
2018-06-05T09:33:36.306Z,20.70
2018-06-05T09:34:39.328Z,20.80
2018-06-05T09:35:42.391Z,20.90
2018-06-05T09:36:45.422Z,20.90
2018-06-05T09:37:48.471Z,20.90
2018-06-05T09:38:51.516Z,21.00
2018-06-05T09:39:54.690Z,21.00
2018-06-05T09:40:57.901Z,21.10
2018-06-05T09:42:01.055Z,21.10
2018-06-05T09:43:04.147Z,21.20
2018-06-05T09:44:07.234Z,21.30
2018-06-05T09:45:10.317Z,21.30
2018-06-05T09:46:13.427Z,21.20
2018-06-05T09:47:16.434Z,21.20
2018-06-05T09:48:19.512Z,21.20
2018-06-05T09:49:22.688Z,21.20
2018-06-05T09:50:25.673Z,21.20
2018-06-05T09:51:28.759Z,21.30
2018-06-05T09:52:31.916Z,21.30
2018-06-05T09:53:34.938Z,21.30
2018-06-05T09:54:37.996Z,21.30
2018-06-05T09:55:41.120Z,21.20
2018-06-05T09:56:44.285Z,21.30
2018-06-05T09:57:47.527Z,21.30
2018-06-05T09:58:50.696Z,21.30
2018-06-05T09:59:53.821Z,21.20
2018-06-05T10:00:56.961Z,21.20
2018-06-05T10:01:59.997Z,21.30
2018-06-05T10:03:03.104Z,21.40
2018-06-05T10:04:06.158Z,21.40
2018-06-05T10:05:09.335Z,21.40
2018-06-05T10:06:12.399Z,21.50
2018-06-05T10:07:15.499Z,21.50
2018-06-05T10:08:18.626Z,21.50
2018-06-05T10:09:21.660Z,21.50
2018-06-05T10:10:24.699Z,21.50
2018-06-05T10:11:27.834Z,21.40
2018-06-05T10:12:30.864Z,21.20
2018-06-05T10:13:33.914Z,21.10
2018-06-05T10:14:36.920Z,21.00
2018-06-05T10:15:39.964Z,20.90
2018-06-05T10:16:42.997Z,20.90
2018-06-05T10:17:46.027Z,20.90
2018-06-05T10:18:49.145Z,20.90
2018-06-05T10:19:52.202Z,20.90
2018-06-05T10:20:55.227Z,21.00
2018-06-05T10:21:58.292Z,21.10
2018-06-05T10:23:01.316Z,21.10
2018-06-05T10:24:04.346Z,21.20
2018-06-05T10:25:07.341Z,21.10
2018-06-05T10:26:10.422Z,21.10
2018-06-05T10:27:13.452Z,21.10
2018-06-05T10:28:16.472Z,21.10
2018-06-05T10:29:19.561Z,21.10
2018-06-05T10:30:22.571Z,21.10
2018-06-05T10:31:25.592Z,21.00
2018-06-05T10:32:28.906Z,21.00
2018-06-05T10:33:31.973Z,20.90
2018-06-05T10:34:35.018Z,20.90
2018-06-05T10:35:38.138Z,20.90
2018-06-05T10:36:41.233Z,20.80
2018-06-05T10:37:44.267Z,20.80
2018-06-05T10:38:47.420Z,20.70
2018-06-05T10:39:50.427Z,20.60
2018-06-05T10:40:53.482Z,20.50
2018-06-05T10:41:56.532Z,20.50
2018-06-05T10:43:00.120Z,20.40
2018-06-05T10:44:03.348Z,20.40
2018-06-05T10:45:06.400Z,20.40
2018-06-05T10:46:09.529Z,20.40
2018-06-05T10:47:12.560Z,20.50
2018-06-05T10:48:15.562Z,20.50
2018-06-05T10:49:18.708Z,20.50
2018-06-05T10:50:21.805Z,20.50
2018-06-05T10:51:24.854Z,20.50
2018-06-05T10:52:28.028Z,20.50
2018-06-05T10:53:31.172Z,20.40
2018-06-05T10:54:34.256Z,20.50
2018-06-05T10:55:37.323Z,20.60
2018-06-05T10:56:40.333Z,20.60
2018-06-05T10:57:43.352Z,20.60
2018-06-05T10:58:46.377Z,20.70
2018-06-05T10:59:49.521Z,20.80
2018-06-05T11:00:52.537Z,20.80
2018-06-05T11:01:55.597Z,20.80
2018-06-05T11:02:58.732Z,20.80
2018-06-05T11:04:01.768Z,20.80
2018-06-05T11:05:04.808Z,20.70
2018-06-05T11:06:07.914Z,20.50
2018-06-05T11:07:10.960Z,20.50
2018-06-05T11:08:13.979Z,20.40
2018-06-05T11:09:17.116Z,20.50
2018-06-05T11:10:20.137Z,20.40
2018-06-05T11:11:23.162Z,20.50
2018-06-05T11:12:26.175Z,20.40
2018-06-05T11:14:32.199Z,20.40
2018-06-05T11:15:35.259Z,20.40
2018-06-05T11:16:38.281Z,20.50
2018-06-05T11:17:41.342Z,20.40
2018-06-05T11:18:44.349Z,20.40
2018-06-05T11:19:47.454Z,20.40
2018-06-05T11:20:50.595Z,20.50
2018-06-05T11:21:53.676Z,20.50
2018-06-05T11:22:56.713Z,20.50
2018-06-05T11:23:59.787Z,20.40
2018-06-05T11:25:02.826Z,20.40
2018-06-05T11:26:05.829Z,20.40
2018-06-05T11:27:09.060Z,20.50
2018-06-05T11:28:12.105Z,20.50
2018-06-05T11:29:15.260Z,20.40
2018-06-05T11:30:18.339Z,20.40
2018-06-05T11:31:21.373Z,20.30
2018-06-05T11:32:24.440Z,20.30
2018-06-05T11:33:27.511Z,20.30
2018-06-05T11:34:30.645Z,20.40
2018-06-05T11:35:33.687Z,20.50
2018-06-05T11:36:36.701Z,20.50
2018-06-05T11:37:39.820Z,20.50
2018-06-05T11:38:42.827Z,20.50
2018-06-05T11:39:45.859Z,20.50
2018-06-05T11:40:49.040Z,20.50
2018-06-05T11:41:52.067Z,20.60
2018-06-05T11:43:57.990Z,20.70
2018-06-05T11:45:01.062Z,20.70
2018-06-05T11:46:04.081Z,20.70
2018-06-05T11:47:07.120Z,20.70
2018-06-05T11:49:13.117Z,20.70
2018-06-05T11:50:16.159Z,20.70
2018-06-05T11:51:19.332Z,20.70
2018-06-05T11:52:22.398Z,20.80
2018-06-05T11:53:25.483Z,20.80
2018-06-05T11:54:28.521Z,20.80
2018-06-05T11:55:31.580Z,20.80
2018-06-05T11:56:34.699Z,20.90
2018-06-05T11:57:37.724Z,20.90
2018-06-05T11:58:40.779Z,21.00
2018-06-05T11:59:43.911Z,21.10
2018-06-05T12:00:46.986Z,21.20
2018-06-05T12:01:50.063Z,21.30
2018-06-05T12:02:53.044Z,21.20
2018-06-05T12:03:56.092Z,21.40
2018-06-05T12:04:59.189Z,21.50
2018-06-05T12:06:02.220Z,21.70
2018-06-05T12:07:05.325Z,21.80
2018-06-05T12:08:08.415Z,21.90
2018-06-05T12:09:11.568Z,22.00
2018-06-05T12:10:14.576Z,22.10
2018-06-05T12:11:17.593Z,22.30
2018-06-05T12:12:20.629Z,22.40
2018-06-05T12:13:23.684Z,22.50
2018-06-05T12:14:26.743Z,22.50
2018-06-05T12:15:29.818Z,22.50
2018-06-05T12:16:32.812Z,22.50
2018-06-05T12:18:38.695Z,22.50
2018-06-05T12:19:41.776Z,22.50
2018-06-05T12:20:44.767Z,22.60
2018-06-05T12:21:47.832Z,22.70
2018-06-05T12:22:50.892Z,22.80
2018-06-05T12:23:53.941Z,22.80
2018-06-05T12:24:56.972Z,22.80
2018-06-05T12:26:00.061Z,22.70
2018-06-05T12:27:03.100Z,22.70
2018-06-05T12:28:06.113Z,22.70
2018-06-05T12:30:11.964Z,22.60
2018-06-05T12:31:15.037Z,22.50
2018-06-05T12:33:21.760Z,22.50
2018-06-05T12:34:25.076Z,22.40
2018-06-05T12:35:28.184Z,22.40
2018-06-05T12:36:31.209Z,22.30
2018-06-05T12:37:34.283Z,22.20
2018-06-05T12:38:37.282Z,22.20
2018-06-05T12:39:40.425Z,22.20
2018-06-05T12:40:43.502Z,22.10
2018-06-05T12:41:46.560Z,22.10
2018-06-05T12:42:49.631Z,22.10
2018-06-05T12:43:52.752Z,22.10
2018-06-05T12:44:55.787Z,22.00
2018-06-05T12:45:58.816Z,22.10
2018-06-05T12:47:01.888Z,22.10
2018-06-05T12:48:05.107Z,22.10
2018-06-05T12:49:08.138Z,22.10
2018-06-05T12:50:11.995Z,22.00
2018-06-05T12:51:15.023Z,22.00
2018-06-05T12:52:18.180Z,22.00
2018-06-05T12:53:21.338Z,22.00
2018-06-05T12:54:24.579Z,22.00
2018-06-05T12:55:27.850Z,21.90
2018-06-05T12:56:31.015Z,21.80
2018-06-05T12:57:34.409Z,21.90
2018-06-05T12:58:37.556Z,21.90
2018-06-05T12:59:40.600Z,22.00
2018-06-05T13:00:43.701Z,22.00
2018-06-05T13:01:46.735Z,22.10
2018-06-05T13:02:49.763Z,22.10
2018-06-05T13:03:52.921Z,22.20
2018-06-05T13:04:56.058Z,22.30
2018-06-05T13:05:59.082Z,22.30
2018-06-05T13:07:02.100Z,22.40
2018-06-05T13:08:05.226Z,22.50
2018-06-05T13:09:08.237Z,22.50
2018-06-05T13:10:11.339Z,22.50
2018-06-05T13:11:14.374Z,22.50
2018-06-05T13:12:17.436Z,22.50
2018-06-05T13:13:20.928Z,22.50
2018-06-05T13:14:24.029Z,22.60
2018-06-05T13:15:27.383Z,22.60
2018-06-05T13:16:30.592Z,22.60
2018-06-05T13:17:33.661Z,22.70
2018-06-05T13:18:36.743Z,22.70
2018-06-05T13:19:39.770Z,22.70
2018-06-05T13:20:42.868Z,22.70
2018-06-05T13:21:46.017Z,22.80
2018-06-05T13:22:49.491Z,22.80
2018-06-05T13:23:52.548Z,22.70
2018-06-05T13:24:55.589Z,22.60
2018-06-05T13:25:58.883Z,22.70
2018-06-05T13:27:06.892Z,22.70
2018-06-05T13:28:10.102Z,22.80
2018-06-05T13:29:13.209Z,22.80
2018-06-05T13:30:16.247Z,22.80
2018-06-05T13:31:19.372Z,22.80
2018-06-05T13:32:22.385Z,22.80
2018-06-05T13:33:25.431Z,22.80
2018-06-05T13:34:28.487Z,22.80
2018-06-05T13:35:31.605Z,22.90
2018-06-05T13:36:34.690Z,22.80
2018-06-05T13:37:37.729Z,22.80
2018-06-05T13:38:40.839Z,22.90
2018-06-05T13:39:43.888Z,22.80
2018-06-05T13:40:46.959Z,22.90
2018-06-05T13:42:52.935Z,23.00
2018-06-05T13:43:55.995Z,23.10
2018-06-05T13:44:59.162Z,23.10
2018-06-05T13:46:02.220Z,23.10
2018-06-05T13:47:05.286Z,23.10
2018-06-05T13:48:08.392Z,23.20
2018-06-05T13:49:11.516Z,23.20
2018-06-05T13:50:14.578Z,23.30
2018-06-05T13:51:17.615Z,23.40
2018-06-05T13:52:21.565Z,23.50
2018-06-05T13:53:24.588Z,23.50
2018-06-05T13:54:27.608Z,23.60
2018-06-05T13:55:30.790Z,23.60
2018-06-05T13:56:33.811Z,23.50